aviador You're here:

SBGL Decoded Metar

RIO DE JANEIRO in BRAZIL
Report Time2017-08-24 03:00:00
UTC Time2017-08-24 03:11:04
Flight Rules vfr VFR
Wind100° at 09 kt
W.Decomp.*RWY 10: 8.4 kt HW 3.2 kt RCW
RWY 15: 7.9 kt HW 4.4 kt LCW
W.Rank100° ranks 4
Current wind is above 100° avg. (5.4)
Visibility9999 m
Phenomena:N/A
Clouds:Few 025 Hf
Broken 050 Hf
Expected CloudBase > 2,000 ft AGL from Temp-Dew spread
Ceiling5,000 ft
Temp20°C (ISA +5)
Dew Point15°C (73% RH)
AAT18.4°C
QNH1023 hPa
Density Alt502 ft
Elevation20 ft
Report Wrong Elevation
Raw Report
SBGL 240300Z 10009KT 9999 FEW025 BKN050 20/15 Q1023=

Extra information for SBGL:More info

Metar Taf Metar & Taf Last 4 Metars F.Rules Stats Wind Profile Meteogram Temp Stats Airport Information Weather charts Add Link Nearby VenuesMetar ALERT Operation Metar Decoded Social comments